sensor_id;sensor_type;location;lat;lon;timestamp;temperature;humidity
3846;DHT22;1938;50.812;7.738;2023-03-14T00:02:10;9.40;99.90
3846;DHT22;1938;50.812;7.738;2023-03-14T00:04:36;9.40;99.90
3846;DHT22;1938;50.812;7.738;2023-03-14T00:07:03;9.40;99.90
3846;DHT22;1938;50.812;7.738;2023-03-14T00:09:29;9.50;99.90
3846;DHT22;1938;50.812;7.738;2023-03-14T00:11:55;9.50;1.00
3846;DHT22;1938;50.812;7.738;2023-03-14T00:14:21;9.50;1.00
3846;DHT22;1938;50.812;7.738;2023-03-14T00:16:46;9.60;99.90
3846;DHT22;1938;50.812;7.738;2023-03-14T00:19:12;9.60;99.90
3846;DHT22;1938;50.812;7.738;2023-03-14T00:21:38;9.60;99.90
3846;DHT22;1938;50.812;7.738;2023-03-14T00:24:03;9.70;99.90
3846;DHT22;1938;50.812;7.738;2023-03-14T00:26:29;9.70;99.90
3846;DHT22;1938;50.812;7.738;2023-03-14T00:28:55;9.60;20.20
3846;DHT22;1938;50.812;7.738;2023-03-14T00:31:20;9.70;15.80
3846;DHT22;1938;50.812;7.738;2023-03-14T00:33:46;9.70;99.90
3846;DHT22;1938;50.812;7.738;2023-03-14T00:36:14;9.70;3.90
3846;DHT22;1938;50.812;7.738;2023-03-14T00:38:41;9.70;10.50
3846;DHT22;1938;50.812;7.738;2023-03-14T00:41:10;9.70;23.30
3846;DHT22;1938;50.812;7.738;2023-03-14T00:43:36;9.60;99.90
3846;DHT22;1938;50.812;7.738;2023-03-14T00:46:02;9.60;99.90
3846;DHT22;1938;50.812;7.738;2023-03-14T00:48:29;9.60;99.90
3846;DHT22;1938;50.812;7.738;2023-03-14T00:50:55;9.60;99.90
3846;DHT22;1938;50.812;7.738;2023-03-14T00:53:21;9.60;99.90
3846;DHT22;1938;50.812;7.738;2023-03-14T00:55:48;9.60;99.90
3846;DHT22;1938;50.812;7.738;2023-03-14T00:58:15;9.60;99.90
3846;DHT22;1938;50.812;7.738;2023-03-14T01:00:42;9.60;99.90
3846;DHT22;1938;50.812;7.738;2023-03-14T01:03:08;9.50;1.00
3846;DHT22;1938;50.812;7.738;2023-03-14T01:05:34;9.50;11.80
3846;DHT22;1938;50.812;7.738;2023-03-14T01:08:00;9.50;33.60
3846;DHT22;1938;50.812;7.738;2023-03-14T01:10:26;9.40;49.30
3846;DHT22;1938;50.812;7.738;2023-03-14T01:12:51;9.40;33.90
3846;DHT22;1938;50.812;7.738;2023-03-14T01:15:17;9.30;17.20
3846;DHT22;1938;50.812;7.738;2023-03-14T01:17:43;9.30;54.60
3846;DHT22;1938;50.812;7.738;2023-03-14T01:20:11;9.20;93.80
3846;DHT22;1938;50.812;7.738;2023-03-14T01:22:38;9.20;99.90
3846;DHT22;1938;50.812;7.738;2023-03-14T01:25:10;9.20;99.90
3846;DHT22;1938;50.812;7.738;2023-03-14T01:27:36;9.20;92.60
3846;DHT22;1938;50.812;7.738;2023-03-14T01:30:02;9.20;99.90
3846;DHT22;1938;50.812;7.738;2023-03-14T01:32:29;9.20;81.90
3846;DHT22;1938;50.812;7.738;2023-03-14T01:34:54;9.20;76.10
3846;DHT22;1938;50.812;7.738;2023-03-14T01:37:20;9.20;99.90
3846;DHT22;1938;50.812;7.738;2023-03-14T01:39:48;9.20;99.50
3846;DHT22;1938;50.812;7.738;2023-03-14T01:42:15;9.20;99.90
3846;DHT22;1938;50.812;7.738;2023-03-14T01:44:48;9.20;99.90
3846;DHT22;1938;50.812;7.738;2023-03-14T01:47:14;9.20;99.90
3846;DHT22;1938;50.812;7.738;2023-03-14T01:49:41;9.20;80.30
3846;DHT22;1938;50.812;7.738;2023-03-14T01:52:11;9.20;80.80
3846;DHT22;1938;50.812;7.738;2023-03-14T01:54:44;9.20;62.80
3846;DHT22;1938;50.812;7.738;2023-03-14T01:57:22;9.20;60.90
3846;DHT22;1938;50.812;7.738;2023-03-14T01:59:54;9.20;48.10
3846;DHT22;1938;50.812;7.738;2023-03-14T02:02:23;9.30;28.10
3846;DHT22;1938;50.812;7.738;2023-03-14T02:04:50;9.20;28.80
3846;DHT22;1938;50.812;7.738;2023-03-14T02:07:40;9.20;7.70
3846;DHT22;1938;50.812;7.738;2023-03-14T02:10:11;9.20;1.00
3846;DHT22;1938;50.812;7.738;2023-03-14T02:12:37;9.30;32.70
3846;DHT22;1938;50.812;7.738;2023-03-14T02:15:04;9.20;99.90
3846;DHT22;1938;50.812;7.738;2023-03-14T02:17:30;9.10;99.90
3846;DHT22;1938;50.812;7.738;2023-03-14T02:22:45;9.10;99.90
3846;DHT22;1938;50.812;7.738;2023-03-14T02:27:56;9.00;99.90
3846;DHT22;1938;50.812;7.738;2023-03-14T02:30:27;9.00;99.90
3846;DHT22;1938;50.812;7.738;2023-03-14T02:33:06;9.00;99.90
3846;DHT22;1938;50.812;7.738;2023-03-14T02:35:48;8.90;99.90
3846;DHT22;1938;50.812;7.738;2023-03-14T02:38:47;8.90;99.90
3846;DHT22;1938;50.812;7.738;2023-03-14T02:41:16;8.80;99.90
3846;DHT22;1938;50.812;7.738;2023-03-14T02:43:41;8.80;99.90
3846;DHT22;1938;50.812;7.738;2023-03-14T02:46:13;8.80;99.90
3846;DHT22;1938;50.812;7.738;2023-03-14T02:51:13;8.70;99.90
3846;DHT22;1938;50.812;7.738;2023-03-14T02:53:39;8.70;99.90
3846;DHT22;1938;50.812;7.738;2023-03-14T02:56:07;8.70;99.90
3846;DHT22;1938;50.812;7.738;2023-03-14T02:58:33;8.60;99.90
3846;DHT22;1938;50.812;7.738;2023-03-14T03:00:59;8.60;99.90
3846;DHT22;1938;50.812;7.738;2023-03-14T03:03:25;8.60;99.90
3846;DHT22;1938;50.812;7.738;2023-03-14T03:05:53;8.60;99.90
3846;DHT22;1938;50.812;7.738;2023-03-14T03:08:19;8.60;99.90
3846;DHT22;1938;50.812;7.738;2023-03-14T03:10:45;8.60;99.90
3846;DHT22;1938;50.812;7.738;2023-03-14T03:13:11;8.60;99.90
3846;DHT22;1938;50.812;7.738;2023-03-14T03:15:37;8.60;99.90
3846;DHT22;1938;50.812;7.738;2023-03-14T03:18:03;8.60;99.90
3846;DHT22;1938;50.812;7.738;2023-03-14T03:20:29;8.70;99.90
3846;DHT22;1938;50.812;7.738;2023-03-14T03:22:54;8.60;99.90
3846;DHT22;1938;50.812;7.738;2023-03-14T03:25:20;8.60;99.90
3846;DHT22;1938;50.812;7.738;2023-03-14T03:27:46;8.70;99.90
3846;DHT22;1938;50.812;7.738;2023-03-14T03:30:12;8.60;99.90
3846;DHT22;1938;50.812;7.738;2023-03-14T03:32:38;8.70;99.90
3846;DHT22;1938;50.812;7.738;2023-03-14T03:35:04;8.70;99.90
3846;DHT22;1938;50.812;7.738;2023-03-14T03:37:33;8.70;99.90
3846;DHT22;1938;50.812;7.738;2023-03-14T03:39:59;8.70;99.90
3846;DHT22;1938;50.812;7.738;2023-03-14T03:42:26;8.80;99.90
3846;DHT22;1938;50.812;7.738;2023-03-14T03:44:52;8.70;99.60
3846;DHT22;1938;50.812;7.738;2023-03-14T03:47:17;8.80;71.30
3846;DHT22;1938;50.812;7.738;2023-03-14T03:49:43;8.70;75.70
3846;DHT22;1938;50.812;7.738;2023-03-14T03:52:10;8.80;64.90
3846;DHT22;1938;50.812;7.738;2023-03-14T03:54:36;8.80;44.30
3846;DHT22;1938;50.812;7.738;2023-03-14T03:57:02;8.80;40.00
3846;DHT22;1938;50.812;7.738;2023-03-14T03:59:27;8.80;16.80
3846;DHT22;1938;50.812;7.738;2023-03-14T04:01:53;8.80;26.70
3846;DHT22;1938;50.812;7.738;2023-03-14T04:04:18;8.70;4.40
3846;DHT22;1938;50.812;7.738;2023-03-14T04:06:44;8.80;5.30
3846;DHT22;1938;50.812;7.738;2023-03-14T04:09:10;8.80;1.00
3846;DHT22;1938;50.812;7.738;2023-03-14T04:11:36;8.90;1.00
3846;DHT22;1938;50.812;7.738;2023-03-14T04:14:03;8.80;1.00
3846;DHT22;1938;50.812;7.738;2023-03-14T04:16:29;8.80;1.00
3846;DHT22;1938;50.812;7.738;2023-03-14T04:18:56;8.80;1.00
3846;DHT22;1938;50.812;7.738;2023-03-14T04:21:22;8.80;1.00
3846;DHT22;1938;50.812;7.738;2023-03-14T04:23:49;8.80;1.00
3846;DHT22;1938;50.812;7.738;2023-03-14T04:26:15;8.80;1.00
3846;DHT22;1938;50.812;7.738;2023-03-14T04:28:40;8.80;1.00
3846;DHT22;1938;50.812;7.738;2023-03-14T04:31:12;8.80;1.00
3846;DHT22;1938;50.812;7.738;2023-03-14T04:33:38;8.70;1.00
3846;DHT22;1938;50.812;7.738;2023-03-14T04:36:05;8.80;1.00
3846;DHT22;1938;50.812;7.738;2023-03-14T04:38:31;8.80;1.00
3846;DHT22;1938;50.812;7.738;2023-03-14T04:40:57;8.80;1.00
3846;DHT22;1938;50.812;7.738;2023-03-14T04:43:22;8.70;1.00
3846;DHT22;1938;50.812;7.738;2023-03-14T04:45:48;8.70;1.00
3846;DHT22;1938;50.812;7.738;2023-03-14T04:48:14;8.80;1.00
3846;DHT22;1938;50.812;7.738;2023-03-14T04:50:40;8.80;1.00
3846;DHT22;1938;50.812;7.738;2023-03-14T04:53:06;8.80;1.00
3846;DHT22;1938;50.812;7.738;2023-03-14T04:55:32;8.80;99.90
3846;DHT22;1938;50.812;7.738;2023-03-14T04:57:59;8.80;99.90
3846;DHT22;1938;50.812;7.738;2023-03-14T05:00:24;8.80;99.90
3846;DHT22;1938;50.812;7.738;2023-03-14T05:02:50;9.00;49.00
3846;DHT22;1938;50.812;7.738;2023-03-14T05:05:17;8.90;1.00
3846;DHT22;1938;50.812;7.738;2023-03-14T05:07:42;8.90;16.10
3846;DHT22;1938;50.812;7.738;2023-03-14T05:10:09;8.80;1.00
3846;DHT22;1938;50.812;7.738;2023-03-14T05:12:35;8.90;1.00
3846;DHT22;1938;50.812;7.738;2023-03-14T05:15:00;8.90;99.90
3846;DHT22;1938;50.812;7.738;2023-03-14T05:17:26;8.80;99.90
3846;DHT22;1938;50.812;7.738;2023-03-14T05:19:51;8.90;95.20
3846;DHT22;1938;50.812;7.738;2023-03-14T05:22:17;8.90;99.90
3846;DHT22;1938;50.812;7.738;2023-03-14T05:24:42;8.90;99.90
3846;DHT22;1938;50.812;7.738;2023-03-14T05:27:08;8.90;99.90
3846;DHT22;1938;50.812;7.738;2023-03-14T05:29:33;8.80;1.00
3846;DHT22;1938;50.812;7.738;2023-03-14T05:31:59;8.80;1.00
3846;DHT22;1938;50.812;7.738;2023-03-14T05:34:25;8.80;99.90
3846;DHT22;1938;50.812;7.738;2023-03-14T05:36:51;8.80;99.90
3846;DHT22;1938;50.812;7.738;2023-03-14T05:39:17;8.80;1.00
3846;DHT22;1938;50.812;7.738;2023-03-14T05:41:42;8.80;1.00
3846;DHT22;1938;50.812;7.738;2023-03-14T05:44:08;8.70;1.00
3846;DHT22;1938;50.812;7.738;2023-03-14T05:46:34;8.70;10.40
3846;DHT22;1938;50.812;7.738;2023-03-14T05:49:00;8.70;41.30
3846;DHT22;1938;50.812;7.738;2023-03-14T05:51:26;8.60;74.60
3846;DHT22;1938;50.812;7.738;2023-03-14T05:53:52;8.60;99.90
3846;DHT22;1938;50.812;7.738;2023-03-14T05:56:18;8.60;99.90
3846;DHT22;1938;50.812;7.738;2023-03-14T05:58:43;8.50;99.90
3846;DHT22;1938;50.812;7.738;2023-03-14T06:01:09;8.50;99.90
3846;DHT22;1938;50.812;7.738;2023-03-14T06:03:34;8.40;99.90
3846;DHT22;1938;50.812;7.738;2023-03-14T06:06:00;8.40;99.90
3846;DHT22;1938;50.812;7.738;2023-03-14T06:08:26;8.30;99.90
3846;DHT22;1938;50.812;7.738;2023-03-14T06:10:54;8.30;99.90
3846;DHT22;1938;50.812;7.738;2023-03-14T06:13:20;8.30;99.90
3846;DHT22;1938;50.812;7.738;2023-03-14T06:15:46;8.30;99.90
3846;DHT22;1938;50.812;7.738;2023-03-14T06:18:12;8.30;99.90
3846;DHT22;1938;50.812;7.738;2023-03-14T06:20:39;8.30;99.90
3846;DHT22;1938;50.812;7.738;2023-03-14T06:23:06;8.30;99.90
3846;DHT22;1938;50.812;7.738;2023-03-14T06:25:32;8.30;99.90
3846;DHT22;1938;50.812;7.738;2023-03-14T06:27:59;8.40;99.90
3846;DHT22;1938;50.812;7.738;2023-03-14T06:30:24;8.40;99.90
3846;DHT22;1938;50.812;7.738;2023-03-14T06:32:50;8.40;99.90
3846;DHT22;1938;50.812;7.738;2023-03-14T06:35:17;8.40;90.70
3846;DHT22;1938;50.812;7.738;2023-03-14T06:37:42;8.40;99.90
3846;DHT22;1938;50.812;7.738;2023-03-14T06:40:09;8.40;62.20
3846;DHT22;1938;50.812;7.738;2023-03-14T06:42:35;8.50;36.10
3846;DHT22;1938;50.812;7.738;2023-03-14T06:45:02;8.60;29.90
3846;DHT22;1938;50.812;7.738;2023-03-14T06:47:29;8.60;7.00
3846;DHT22;1938;50.812;7.738;2023-03-14T06:49:54;8.50;26.70
3846;DHT22;1938;50.812;7.738;2023-03-14T06:52:20;8.50;30.20
3846;DHT22;1938;50.812;7.738;2023-03-14T06:54:45;8.60;99.90
3846;DHT22;1938;50.812;7.738;2023-03-14T06:57:11;8.70;99.90
3846;DHT22;1938;50.812;7.738;2023-03-14T06:59:36;8.70;99.90
3846;DHT22;1938;50.812;7.738;2023-03-14T07:02:02;8.80;76.80
3846;DHT22;1938;50.812;7.738;2023-03-14T07:04:27;8.90;50.50
3846;DHT22;1938;50.812;7.738;2023-03-14T07:06:53;9.00;13.50
3846;DHT22;1938;50.812;7.738;2023-03-14T07:09:19;9.10;1.00
3846;DHT22;1938;50.812;7.738;2023-03-14T07:11:44;9.10;1.00
3846;DHT22;1938;50.812;7.738;2023-03-14T07:14:11;9.20;1.00
3846;DHT22;1938;50.812;7.738;2023-03-14T07:16:37;9.20;1.00
3846;DHT22;1938;50.812;7.738;2023-03-14T07:19:03;9.30;99.90
3846;DHT22;1938;50.812;7.738;2023-03-14T07:21:28;9.30;99.90
3846;DHT22;1938;50.812;7.738;2023-03-14T07:23:55;9.40;99.90
3846;DHT22;1938;50.812;7.738;2023-03-14T07:26:21;9.40;99.90
3846;DHT22;1938;50.812;7.738;2023-03-14T07:28:46;9.40;22.50
3846;DHT22;1938;50.812;7.738;2023-03-14T07:31:12;9.50;99.90
3846;DHT22;1938;50.812;7.738;2023-03-14T07:33:38;9.50;99.90
3846;DHT22;1938;50.812;7.738;2023-03-14T07:36:04;9.60;99.90
3846;DHT22;1938;50.812;7.738;2023-03-14T07:38:30;9.60;99.90
3846;DHT22;1938;50.812;7.738;2023-03-14T07:41:00;9.70;99.90
3846;DHT22;1938;50.812;7.738;2023-03-14T07:43:26;9.80;99.90
3846;DHT22;1938;50.812;7.738;2023-03-14T07:45:51;9.90;99.90
3846;DHT22;1938;50.812;7.738;2023-03-14T07:48:18;10.00;99.90
3846;DHT22;1938;50.812;7.738;2023-03-14T07:50:44;10.10;99.90
3846;DHT22;1938;50.812;7.738;2023-03-14T07:53:09;10.20;99.90
3846;DHT22;1938;50.812;7.738;2023-03-14T07:55:35;10.20;1.00
3846;DHT22;1938;50.812;7.738;2023-03-14T07:58:01;10.30;1.00
3846;DHT22;1938;50.812;7.738;2023-03-14T08:00:27;10.40;1.00
3846;DHT22;1938;50.812;7.738;2023-03-14T08:02:52;10.50;99.90
3846;DHT22;1938;50.812;7.738;2023-03-14T08:05:19;10.60;53.80
3846;DHT22;1938;50.812;7.738;2023-03-14T08:07:44;10.80;99.90
3846;DHT22;1938;50.812;7.738;2023-03-14T08:10:10;10.60;99.90
3846;DHT22;1938;50.812;7.738;2023-03-14T08:12:36;10.30;30.20
3846;DHT22;1938;50.812;7.738;2023-03-14T08:15:01;10.10;36.10
3846;DHT22;1938;50.812;7.738;2023-03-14T08:17:27;10.00;95.50
3846;DHT22;1938;50.812;7.738;2023-03-14T08:19:53;9.90;99.90
3846;DHT22;1938;50.812;7.738;2023-03-14T08:22:18;9.90;61.60
3846;DHT22;1938;50.812;7.738;2023-03-14T08:24:44;10.00;95.70
3846;DHT22;1938;50.812;7.738;2023-03-14T08:27:10;10.10;73.80
3846;DHT22;1938;50.812;7.738;2023-03-14T08:29:36;10.10;1.00
3846;DHT22;1938;50.812;7.738;2023-03-14T08:32:01;10.20;1.00
3846;DHT22;1938;50.812;7.738;2023-03-14T08:34:27;10.30;99.90
3846;DHT22;1938;50.812;7.738;2023-03-14T08:36:53;10.20;99.90
3846;DHT22;1938;50.812;7.738;2023-03-14T08:39:21;10.20;99.90
3846;DHT22;1938;50.812;7.738;2023-03-14T08:41:47;10.30;99.90
3846;DHT22;1938;50.812;7.738;2023-03-14T08:44:14;10.30;9.60
3846;DHT22;1938;50.812;7.738;2023-03-14T08:46:40;10.50;1.00
3846;DHT22;1938;50.812;7.738;2023-03-14T08:49:06;10.70;99.90
3846;DHT22;1938;50.812;7.738;2023-03-14T08:51:32;11.00;1.00
3846;DHT22;1938;50.812;7.738;2023-03-14T08:53:58;11.00;1.00
3846;DHT22;1938;50.812;7.738;2023-03-14T08:56:24;10.90;1.00
3846;DHT22;1938;50.812;7.738;2023-03-14T08:58:49;10.90;95.50
3846;DHT22;1938;50.812;7.738;2023-03-14T09:01:15;11.00;48.90
3846;DHT22;1938;50.812;7.738;2023-03-14T09:03:41;11.00;1.00
3846;DHT22;1938;50.812;7.738;2023-03-14T09:06:09;11.00;1.00
3846;DHT22;1938;50.812;7.738;2023-03-14T09:08:37;11.00;99.90
3846;DHT22;1938;50.812;7.738;2023-03-14T09:11:02;10.90;99.90
3846;DHT22;1938;50.812;7.738;2023-03-14T09:13:29;10.80;1.00
3846;DHT22;1938;50.812;7.738;2023-03-14T09:15:56;10.90;23.30
3846;DHT22;1938;50.812;7.738;2023-03-14T09:18:22;10.90;1.00
3846;DHT22;1938;50.812;7.738;2023-03-14T09:20:48;10.80;1.00
3846;DHT22;1938;50.812;7.738;2023-03-14T09:23:14;10.80;99.90
3846;DHT22;1938;50.812;7.738;2023-03-14T09:25:40;10.70;91.60
3846;DHT22;1938;50.812;7.738;2023-03-14T09:28:05;10.70;99.90
3846;DHT22;1938;50.812;7.738;2023-03-14T09:30:32;10.80;1.00
3846;DHT22;1938;50.812;7.738;2023-03-14T09:32:57;10.70;1.00
3846;DHT22;1938;50.812;7.738;2023-03-14T09:35:24;10.70;99.90
3846;DHT22;1938;50.812;7.738;2023-03-14T09:37:50;10.80;1.00
3846;DHT22;1938;50.812;7.738;2023-03-14T09:40:17;10.80;99.90
3846;DHT22;1938;50.812;7.738;2023-03-14T09:42:47;10.70;99.90
3846;DHT22;1938;50.812;7.738;2023-03-14T09:45:21;10.80;99.90
3846;DHT22;1938;50.812;7.738;2023-03-14T09:47:48;10.70;1.00
3846;DHT22;1938;50.812;7.738;2023-03-14T09:50:15;10.80;99.90
3846;DHT22;1938;50.812;7.738;2023-03-14T09:52:44;11.00;1.00
3846;DHT22;1938;50.812;7.738;2023-03-14T09:55:22;11.00;11.10
3846;DHT22;1938;50.812;7.738;2023-03-14T09:57:56;10.90;16.30
3846;DHT22;1938;50.812;7.738;2023-03-14T10:00:26;10.60;99.90
3846;DHT22;1938;50.812;7.738;2023-03-14T10:05:40;10.00;99.90
3846;DHT22;1938;50.812;7.738;2023-03-14T10:08:09;9.70;99.90
3846;DHT22;1938;50.812;7.738;2023-03-14T10:10:35;9.60;99.90
3846;DHT22;1938;50.812;7.738;2023-03-14T10:13:21;9.50;99.90
3846;DHT22;1938;50.812;7.738;2023-03-14T10:15:53;9.40;99.90
3846;DHT22;1938;50.812;7.738;2023-03-14T10:18:19;9.40;99.90
3846;DHT22;1938;50.812;7.738;2023-03-14T10:20:49;9.30;99.90
3846;DHT22;1938;50.812;7.738;2023-03-14T10:23:28;9.30;99.90
3846;DHT22;1938;50.812;7.738;2023-03-14T10:26:06;9.50;99.90
3846;DHT22;1938;50.812;7.738;2023-03-14T10:28:44;9.70;99.90
3846;DHT22;1938;50.812;7.738;2023-03-14T10:31:11;9.90;99.90
3846;DHT22;1938;50.812;7.738;2023-03-14T10:33:37;10.00;99.90
3846;DHT22;1938;50.812;7.738;2023-03-14T10:36:17;10.10;99.90
3846;DHT22;1938;50.812;7.738;2023-03-14T10:38:44;10.10;99.90
3846;DHT22;1938;50.812;7.738;2023-03-14T10:41:25;10.20;99.90
3846;DHT22;1938;50.812;7.738;2023-03-14T10:43:53;10.00;99.90
3846;DHT22;1938;50.812;7.738;2023-03-14T10:46:24;9.40;54.10
3846;DHT22;1938;50.812;7.738;2023-03-14T10:48:51;9.10;58.80
3846;DHT22;1938;50.812;7.738;2023-03-14T10:51:26;8.70;27.60
3846;DHT22;1938;50.812;7.738;2023-03-14T10:53:59;8.40;99.90
3846;DHT22;1938;50.812;7.738;2023-03-14T10:56:27;8.20;46.10
3846;DHT22;1938;50.812;7.738;2023-03-14T10:58:58;8.10;99.90
3846;DHT22;1938;50.812;7.738;2023-03-14T11:01:55;8.10;99.90
3846;DHT22;1938;50.812;7.738;2023-03-14T11:07:28;8.10;99.90
3846;DHT22;1938;50.812;7.738;2023-03-14T11:15:31;8.20;99.90
3846;DHT22;1938;50.812;7.738;2023-03-14T11:31:47;7.90;99.90
3846;DHT22;1938;50.812;7.738;2023-03-14T11:37:33;7.60;99.90
3846;DHT22;1938;50.812;7.738;2023-03-14T11:40:13;7.10;99.90
3846;DHT22;1938;50.812;7.738;2023-03-14T11:42:41;6.80;99.90
3846;DHT22;1938;50.812;7.738;2023-03-14T11:45:22;6.60;99.90
3846;DHT22;1938;50.812;7.738;2023-03-14T11:48:13;6.50;99.90
3846;DHT22;1938;50.812;7.738;2023-03-14T11:50:41;6.50;99.90
3846;DHT22;1938;50.812;7.738;2023-03-14T11:53:19;6.40;99.90
3846;DHT22;1938;50.812;7.738;2023-03-14T11:55:48;6.40;99.90
3846;DHT22;1938;50.812;7.738;2023-03-14T11:58:30;6.30;99.90
3846;DHT22;1938;50.812;7.738;2023-03-14T12:01:02;6.40;99.90
3846;DHT22;1938;50.812;7.738;2023-03-14T12:09:05;6.50;99.90
3846;DHT22;1938;50.812;7.738;2023-03-14T12:11:38;6.60;99.90
3846;DHT22;1938;50.812;7.738;2023-03-14T12:17:07;6.40;99.90
3846;DHT22;1938;50.812;7.738;2023-03-14T12:19:42;6.50;99.90
3846;DHT22;1938;50.812;7.738;2023-03-14T12:25:44;6.50;99.90
3846;DHT22;1938;50.812;7.738;2023-03-14T12:35:47;6.60;99.90
3846;DHT22;1938;50.812;7.738;2023-03-14T12:41:27;6.30;99.90
3846;DHT22;1938;50.812;7.738;2023-03-14T12:43:54;6.20;99.90
3846;DHT22;1938;50.812;7.738;2023-03-14T12:46:23;6.10;99.90
3846;DHT22;1938;50.812;7.738;2023-03-14T12:49:10;6.10;99.90
3846;DHT22;1938;50.812;7.738;2023-03-14T12:51:43;6.00;99.90
3846;DHT22;1938;50.812;7.738;2023-03-14T12:57:36;5.90;99.90
3846;DHT22;1938;50.812;7.738;2023-03-14T13:00:31;5.80;99.90
3846;DHT22;1938;50.812;7.738;2023-03-14T13:05:59;5.70;99.90
3846;DHT22;1938;50.812;7.738;2023-03-14T13:11:05;5.70;99.90
3846;DHT22;1938;50.812;7.738;2023-03-14T13:13:34;5.70;99.90
3846;DHT22;1938;50.812;7.738;2023-03-14T13:16:01;5.70;99.90
3846;DHT22;1938;50.812;7.738;2023-03-14T13:18:36;5.60;99.90
3846;DHT22;1938;50.812;7.738;2023-03-14T13:23:32;5.50;99.90
3846;DHT22;1938;50.812;7.738;2023-03-14T13:26:00;5.50;99.90
3846;DHT22;1938;50.812;7.738;2023-03-14T13:28:28;5.50;99.90
3846;DHT22;1938;50.812;7.738;2023-03-14T13:30:58;5.50;99.90
3846;DHT22;1938;50.812;7.738;2023-03-14T13:33:24;5.40;99.90
3846;DHT22;1938;50.812;7.738;2023-03-14T13:36:01;5.40;99.90
3846;DHT22;1938;50.812;7.738;2023-03-14T13:38:35;5.30;99.90
3846;DHT22;1938;50.812;7.738;2023-03-14T13:41:05;5.20;99.90
3846;DHT22;1938;50.812;7.738;2023-03-14T13:43:39;5.10;99.90
3846;DHT22;1938;50.812;7.738;2023-03-14T13:46:17;5.00;99.90
3846;DHT22;1938;50.812;7.738;2023-03-14T13:48:50;5.00;99.90
3846;DHT22;1938;50.812;7.738;2023-03-14T13:51:19;4.90;99.90
3846;DHT22;1938;50.812;7.738;2023-03-14T13:53:49;4.80;99.90
3846;DHT22;1938;50.812;7.738;2023-03-14T13:56:16;4.80;99.90
3846;DHT22;1938;50.812;7.738;2023-03-14T13:58:43;4.80;99.90
3846;DHT22;1938;50.812;7.738;2023-03-14T14:01:20;4.90;99.90
3846;DHT22;1938;50.812;7.738;2023-03-14T14:03:51;5.00;99.90
3846;DHT22;1938;50.812;7.738;2023-03-14T14:06:26;5.10;99.90
3846;DHT22;1938;50.812;7.738;2023-03-14T14:08:58;5.10;99.90
3846;DHT22;1938;50.812;7.738;2023-03-14T14:11:37;5.10;99.90
3846;DHT22;1938;50.812;7.738;2023-03-14T14:14:13;5.20;99.90
3846;DHT22;1938;50.812;7.738;2023-03-14T14:16:42;5.30;99.90
3846;DHT22;1938;50.812;7.738;2023-03-14T14:19:08;5.40;99.90
3846;DHT22;1938;50.812;7.738;2023-03-14T14:21:34;5.40;99.90
3846;DHT22;1938;50.812;7.738;2023-03-14T14:24:00;5.40;99.90
3846;DHT22;1938;50.812;7.738;2023-03-14T14:26:27;5.40;99.90
3846;DHT22;1938;50.812;7.738;2023-03-14T14:29:01;5.40;99.90
3846;DHT22;1938;50.812;7.738;2023-03-14T14:31:27;5.30;99.90
3846;DHT22;1938;50.812;7.738;2023-03-14T14:34:02;5.30;99.90
3846;DHT22;1938;50.812;7.738;2023-03-14T14:41:40;5.40;99.90
3846;DHT22;1938;50.812;7.738;2023-03-14T14:44:07;5.40;99.90
3846;DHT22;1938;50.812;7.738;2023-03-14T14:46:35;5.30;99.90
3846;DHT22;1938;50.812;7.738;2023-03-14T14:49:19;5.20;99.90
3846;DHT22;1938;50.812;7.738;2023-03-14T14:51:50;5.00;99.90
3846;DHT22;1938;50.812;7.738;2023-03-14T14:54:17;4.90;99.90
3846;DHT22;1938;50.812;7.738;2023-03-14T14:56:53;4.90;99.90
3846;DHT22;1938;50.812;7.738;2023-03-14T14:59:28;4.90;99.90
3846;DHT22;1938;50.812;7.738;2023-03-14T15:02:02;5.10;99.90
3846;DHT22;1938;50.812;7.738;2023-03-14T15:04:32;5.10;99.90
3846;DHT22;1938;50.812;7.738;2023-03-14T15:06:58;5.10;99.90
3846;DHT22;1938;50.812;7.738;2023-03-14T15:09:24;5.10;99.90
3846;DHT22;1938;50.812;7.738;2023-03-14T15:11:51;5.10;99.90
3846;DHT22;1938;50.812;7.738;2023-03-14T15:14:18;5.10;99.90
3846;DHT22;1938;50.812;7.738;2023-03-14T15:16:44;5.10;99.90
3846;DHT22;1938;50.812;7.738;2023-03-14T15:19:22;5.10;99.90
3846;DHT22;1938;50.812;7.738;2023-03-14T15:21:50;5.00;99.90
3846;DHT22;1938;50.812;7.738;2023-03-14T15:24:17;5.00;99.90
3846;DHT22;1938;50.812;7.738;2023-03-14T15:26:43;5.00;99.90
3846;DHT22;1938;50.812;7.738;2023-03-14T15:29:11;5.00;99.90
3846;DHT22;1938;50.812;7.738;2023-03-14T15:31:38;5.00;99.90
3846;DHT22;1938;50.812;7.738;2023-03-14T15:34:04;5.00;99.90
3846;DHT22;1938;50.812;7.738;2023-03-14T15:36:33;5.00;97.00
3846;DHT22;1938;50.812;7.738;2023-03-14T15:38:59;4.80;99.90
3846;DHT22;1938;50.812;7.738;2023-03-14T15:41:25;4.80;68.30
3846;DHT22;1938;50.812;7.738;2023-03-14T15:43:53;4.70;99.90
3846;DHT22;1938;50.812;7.738;2023-03-14T15:46:21;4.80;1.00
3846;DHT22;1938;50.812;7.738;2023-03-14T15:48:48;4.70;1.00
3846;DHT22;1938;50.812;7.738;2023-03-14T15:51:14;4.60;1.00
3846;DHT22;1938;50.812;7.738;2023-03-14T15:53:40;4.60;99.90
3846;DHT22;1938;50.812;7.738;2023-03-14T15:56:13;4.50;14.40
3846;DHT22;1938;50.812;7.738;2023-03-14T15:58:53;4.50;99.90
3846;DHT22;1938;50.812;7.738;2023-03-14T16:01:21;4.50;99.90
3846;DHT22;1938;50.812;7.738;2023-03-14T16:03:48;4.70;99.90
3846;DHT22;1938;50.812;7.738;2023-03-14T16:06:15;4.60;99.90
3846;DHT22;1938;50.812;7.738;2023-03-14T16:08:42;4.50;1.00
3846;DHT22;1938;50.812;7.738;2023-03-14T16:11:09;4.40;99.90
3846;DHT22;1938;50.812;7.738;2023-03-14T16:13:35;4.30;1.00
3846;DHT22;1938;50.812;7.738;2023-03-14T16:16:02;4.30;1.00
3846;DHT22;1938;50.812;7.738;2023-03-14T16:18:30;4.30;99.90
3846;DHT22;1938;50.812;7.738;2023-03-14T16:21:02;4.30;99.90
3846;DHT22;1938;50.812;7.738;2023-03-14T16:23:30;4.20;1.00
3846;DHT22;1938;50.812;7.738;2023-03-14T16:25:57;4.40;99.90
3846;DHT22;1938;50.812;7.738;2023-03-14T16:28:24;4.60;1.00
3846;DHT22;1938;50.812;7.738;2023-03-14T16:30:51;4.80;99.90
3846;DHT22;1938;50.812;7.738;2023-03-14T16:33:17;4.90;1.00
3846;DHT22;1938;50.812;7.738;2023-03-14T16:35:56;5.10;99.90
3846;DHT22;1938;50.812;7.738;2023-03-14T16:38:23;5.20;99.90
3846;DHT22;1938;50.812;7.738;2023-03-14T16:41:07;5.30;99.90
3846;DHT22;1938;50.812;7.738;2023-03-14T16:43:34;5.20;99.90
3846;DHT22;1938;50.812;7.738;2023-03-14T16:46:03;5.30;99.90
3846;DHT22;1938;50.812;7.738;2023-03-14T16:48:29;5.30;99.90
3846;DHT22;1938;50.812;7.738;2023-03-14T16:51:04;5.30;99.90
3846;DHT22;1938;50.812;7.738;2023-03-14T16:53:30;5.30;99.90
3846;DHT22;1938;50.812;7.738;2023-03-14T16:55:56;5.30;99.90
3846;DHT22;1938;50.812;7.738;2023-03-14T16:58:22;5.30;1.00
3846;DHT22;1938;50.812;7.738;2023-03-14T17:00:48;5.30;92.20
3846;DHT22;1938;50.812;7.738;2023-03-14T17:03:15;5.30;99.90
3846;DHT22;1938;50.812;7.738;2023-03-14T17:05:46;5.20;99.90
3846;DHT22;1938;50.812;7.738;2023-03-14T17:08:12;5.10;99.90
3846;DHT22;1938;50.812;7.738;2023-03-14T17:10:39;5.10;99.90
3846;DHT22;1938;50.812;7.738;2023-03-14T17:13:04;5.00;1.00
3846;DHT22;1938;50.812;7.738;2023-03-14T17:15:30;5.00;1.00
3846;DHT22;1938;50.812;7.738;2023-03-14T17:17:57;5.00;1.00
3846;DHT22;1938;50.812;7.738;2023-03-14T17:20:23;4.90;99.80
3846;DHT22;1938;50.812;7.738;2023-03-14T17:22:48;4.80;71.40
3846;DHT22;1938;50.812;7.738;2023-03-14T17:25:14;4.80;99.90
3846;DHT22;1938;50.812;7.738;2023-03-14T17:27:40;4.80;99.90
3846;DHT22;1938;50.812;7.738;2023-03-14T17:30:06;4.80;99.90
3846;DHT22;1938;50.812;7.738;2023-03-14T17:32:32;4.80;1.00
3846;DHT22;1938;50.812;7.738;2023-03-14T17:34:58;4.80;57.90
3846;DHT22;1938;50.812;7.738;2023-03-14T17:37:24;4.80;1.00
3846;DHT22;1938;50.812;7.738;2023-03-14T17:39:51;4.80;15.50
3846;DHT22;1938;50.812;7.738;2023-03-14T17:42:16;4.80;57.30